createdAt,value
2023-04-23T00:00:49.523Z,16.53
2023-04-23T00:03:19.736Z,15.67
2023-04-23T00:05:51.136Z,18.23
2023-04-23T00:08:19.903Z,17.30
2023-04-23T00:10:47.964Z,16.47
2023-04-23T00:13:15.930Z,16.33
2023-04-23T00:15:43.918Z,14.70
2023-04-23T00:18:11.505Z,16.03
2023-04-23T00:20:39.198Z,16.13
2023-04-23T00:23:06.708Z,17.17
2023-04-23T00:25:34.322Z,18.30
2023-04-23T00:28:01.833Z,17.27
2023-04-23T00:30:29.370Z,18.53
2023-04-23T00:32:57.143Z,18.00
2023-04-23T00:35:24.700Z,17.57
2023-04-23T00:37:52.240Z,17.90
2023-04-23T00:40:20.956Z,16.47
2023-04-23T00:42:49.428Z,16.43
2023-04-23T00:45:17.070Z,17.17
2023-04-23T00:47:45.285Z,17.03
2023-04-23T00:50:13.452Z,17.03
2023-04-23T00:52:41.260Z,15.77
2023-04-23T00:55:09.380Z,16.60
2023-04-23T00:57:39.360Z,15.83
2023-04-23T01:00:08.203Z,15.97
2023-04-23T01:02:37.525Z,16.07
2023-04-23T01:05:07.993Z,15.87
2023-04-23T01:07:36.414Z,15.77
2023-04-23T01:10:08.145Z,15.63
2023-04-23T01:12:35.718Z,15.67
2023-04-23T01:15:04.755Z,14.83
2023-04-23T01:17:32.487Z,14.73
2023-04-23T01:20:00.003Z,14.87
2023-04-23T01:22:27.924Z,15.10
2023-04-23T01:24:55.991Z,15.70
2023-04-23T01:27:25.160Z,15.37
2023-04-23T01:29:53.288Z,15.70
2023-04-23T01:32:21.619Z,15.60
2023-04-23T01:34:50.409Z,15.47
2023-04-23T01:37:18.151Z,14.50
2023-04-23T01:39:45.743Z,14.37
2023-04-23T01:42:13.301Z,13.93
2023-04-23T01:44:41.267Z,14.57
2023-04-23T01:47:09.048Z,14.30
2023-04-23T01:49:36.927Z,14.53
2023-04-23T01:52:04.495Z,14.20
2023-04-23T01:54:32.212Z,14.63
2023-04-23T01:57:00.378Z,14.67
2023-04-23T01:59:27.926Z,14.77
2023-04-23T02:01:55.530Z,14.53
2023-04-23T02:04:23.385Z,14.77
2023-04-23T02:06:52.324Z,14.37
2023-04-23T02:09:19.937Z,14.33
2023-04-23T02:11:47.481Z,14.47
2023-04-23T02:14:15.140Z,14.40
2023-04-23T02:16:42.777Z,15.50
2023-04-23T02:19:10.373Z,17.30
2023-04-23T02:21:37.953Z,16.33
2023-04-23T02:24:05.684Z,15.23
2023-04-23T02:26:33.406Z,15.00
2023-04-23T02:29:00.958Z,14.60
2023-04-23T02:31:28.544Z,15.17
2023-04-23T02:33:56.120Z,14.97
2023-04-23T02:36:23.717Z,14.63
2023-04-23T02:38:51.445Z,15.10
2023-04-23T02:41:19.262Z,14.33
2023-04-23T02:43:47.079Z,15.10
2023-04-23T02:46:14.676Z,14.10
2023-04-23T02:48:42.747Z,15.40
2023-04-23T02:51:12.954Z,15.00
2023-04-23T02:53:40.634Z,15.43
2023-04-23T02:56:08.217Z,14.23
2023-04-23T02:58:36.392Z,14.87
2023-04-23T03:01:05.644Z,15.27
2023-04-23T03:03:34.486Z,15.17
2023-04-23T03:06:03.760Z,15.10
2023-04-23T03:08:31.385Z,15.27
2023-04-23T03:10:59.046Z,15.07
2023-04-23T03:13:27.460Z,14.30
2023-04-23T03:15:56.491Z,14.53
2023-04-23T03:18:24.064Z,15.70
2023-04-23T03:20:51.668Z,14.83
2023-04-23T03:23:19.235Z,14.73
2023-04-23T03:25:46.828Z,14.57
2023-04-23T03:28:15.345Z,14.70
2023-04-23T03:30:43.509Z,14.47
2023-04-23T03:33:11.096Z,15.50
2023-04-23T03:35:38.647Z,16.00
2023-04-23T03:38:06.222Z,15.27
2023-04-23T03:40:33.852Z,14.43
2023-04-23T03:43:01.386Z,14.50
2023-04-23T03:45:30.196Z,14.73
2023-04-23T03:47:57.748Z,13.93
2023-04-23T03:50:26.095Z,14.93
2023-04-23T03:52:53.641Z,14.13
2023-04-23T03:55:21.364Z,14.27
2023-04-23T03:57:48.953Z,15.17
2023-04-23T04:00:16.762Z,15.57
2023-04-23T04:02:44.422Z,14.53
2023-04-23T04:05:12.220Z,14.90
2023-04-23T04:07:41.342Z,14.40
2023-04-23T04:10:09.385Z,13.83
2023-04-23T04:12:36.970Z,14.57
2023-04-23T04:15:05.568Z,14.03
2023-04-23T04:17:33.195Z,14.07
2023-04-23T04:20:00.752Z,14.27
2023-04-23T04:22:29.936Z,13.67
2023-04-23T04:24:57.781Z,13.73
2023-04-23T04:27:25.780Z,13.67
2023-04-23T04:29:53.365Z,14.40
2023-04-23T04:32:23.667Z,14.53
2023-04-23T04:34:51.260Z,14.20
2023-04-23T04:37:18.947Z,18.30
2023-04-23T04:39:47.022Z,24.00
2023-04-23T04:42:14.595Z,18.43
2023-04-23T04:44:43.889Z,16.40
2023-04-23T04:47:13.615Z,16.83
2023-04-23T04:49:41.140Z,15.83
2023-04-23T04:52:08.818Z,15.77
2023-04-23T04:54:36.400Z,15.27
2023-04-23T04:57:03.936Z,15.13
2023-04-23T04:59:31.459Z,15.43
2023-04-23T05:02:00.490Z,15.00
2023-04-23T05:04:28.109Z,14.20
2023-04-23T05:06:55.849Z,14.03
2023-04-23T05:09:23.450Z,14.10
2023-04-23T05:11:51.944Z,13.93
2023-04-23T05:14:19.487Z,14.77
2023-04-23T05:16:47.131Z,14.63
2023-04-23T05:19:14.788Z,13.83
2023-04-23T05:21:42.782Z,14.67
2023-04-23T05:24:10.353Z,14.13
2023-04-23T05:26:38.428Z,14.23
2023-04-23T05:29:06.007Z,14.20
2023-04-23T05:31:33.861Z,14.80
2023-04-23T05:34:01.429Z,14.60
2023-04-23T05:36:29.029Z,14.03
2023-04-23T05:38:56.577Z,14.20
2023-04-23T05:41:24.191Z,14.40
2023-04-23T05:43:51.788Z,14.77
2023-04-23T05:46:19.757Z,14.03
2023-04-23T05:48:47.465Z,13.97
2023-04-23T05:51:15.006Z,14.40
2023-04-23T05:53:42.612Z,13.97
2023-04-23T05:56:10.126Z,14.60
2023-04-23T05:58:39.072Z,14.40
2023-04-23T06:01:06.721Z,14.57
2023-04-23T06:03:34.930Z,13.90
2023-04-23T06:06:02.767Z,14.53
2023-04-23T06:08:30.341Z,13.60
2023-04-23T06:10:58.376Z,13.47
2023-04-23T06:13:26.773Z,13.43
2023-04-23T06:15:54.290Z,14.00
2023-04-23T06:18:21.918Z,13.93
2023-04-23T06:20:51.656Z,13.93
2023-04-23T06:23:19.192Z,13.97
2023-04-23T06:25:46.673Z,14.23
2023-04-23T06:28:14.200Z,13.90
2023-04-23T06:30:41.759Z,14.40
2023-04-23T06:33:09.563Z,14.17
2023-04-23T06:35:37.363Z,13.63
2023-04-23T06:38:05.002Z,14.27
2023-04-23T06:40:33.949Z,13.17
2023-04-23T06:43:04.723Z,13.53
2023-04-23T06:45:33.445Z,13.27
2023-04-23T06:48:01.305Z,13.30
2023-04-23T06:50:29.575Z,13.20
2023-04-23T06:52:57.100Z,12.20
2023-04-23T06:55:29.202Z,11.83
2023-04-23T06:57:57.568Z,11.80
2023-04-23T07:00:25.346Z,10.43
2023-04-23T07:02:52.964Z,10.67
2023-04-23T07:05:20.897Z,10.63
2023-04-23T07:07:48.447Z,10.77
2023-04-23T07:10:17.995Z,10.63
2023-04-23T07:12:46.060Z,10.40
2023-04-23T07:15:13.875Z,10.47
2023-04-23T07:17:41.718Z,10.13
2023-04-23T07:20:09.719Z,10.00
2023-04-23T07:22:37.246Z,9.80
2023-04-23T07:25:05.643Z,10.13
2023-04-23T07:27:33.134Z,10.03
2023-04-23T07:30:02.337Z,10.10
2023-04-23T07:32:30.133Z,9.63
2023-04-23T07:34:57.711Z,8.27
2023-04-23T07:37:25.379Z,8.90
2023-04-23T07:39:54.121Z,9.00
2023-04-23T07:42:21.642Z,6.30
2023-04-23T07:44:49.197Z,8.83
2023-04-23T07:47:16.892Z,8.63
2023-04-23T07:49:44.814Z,7.30
2023-04-23T07:52:12.444Z,10.17
2023-04-23T07:54:40.029Z,8.40
2023-04-23T07:57:07.650Z,9.17
2023-04-23T07:59:35.194Z,6.33
2023-04-23T08:02:02.727Z,5.63
2023-04-23T08:04:30.775Z,6.00
2023-04-23T08:06:58.989Z,6.67
2023-04-23T08:09:27.456Z,5.07
2023-04-23T08:11:55.574Z,4.70
2023-04-23T08:14:23.159Z,4.40
2023-04-23T08:16:50.661Z,4.53
2023-04-23T08:19:18.249Z,4.80
2023-04-23T08:21:45.848Z,4.37
2023-04-23T08:24:13.392Z,4.70
2023-04-23T08:26:41.095Z,4.70
2023-04-23T08:29:10.880Z,3.80
2023-04-23T08:31:39.182Z,3.30
2023-04-23T08:34:07.134Z,3.23
2023-04-23T08:36:34.845Z,3.40
2023-04-23T08:39:04.225Z,3.40
2023-04-23T08:41:44.371Z,3.93
2023-04-23T08:44:22.657Z,3.97
2023-04-23T08:46:51.247Z,3.87
2023-04-23T08:49:19.913Z,4.27
2023-04-23T08:51:54.709Z,4.20
2023-04-23T08:54:31.213Z,4.20
2023-04-23T08:56:59.725Z,3.60
2023-04-23T08:59:42.376Z,3.70
2023-04-23T09:02:10.988Z,3.50
2023-04-23T09:04:39.353Z,3.67
2023-04-23T09:07:15.757Z,3.33
2023-04-23T09:09:49.243Z,3.25
2023-04-23T09:12:26.349Z,3.83
2023-04-23T09:14:56.066Z,3.40
2023-04-23T09:17:49.459Z,3.33
2023-04-23T09:20:31.890Z,3.67
2023-04-23T09:22:59.417Z,3.35
2023-04-23T09:25:27.063Z,3.63
2023-04-23T09:27:55.049Z,3.63
2023-04-23T09:30:25.507Z,3.70
2023-04-23T09:32:53.332Z,3.45
2023-04-23T09:35:21.093Z,3.75
2023-04-23T09:37:52.615Z,3.40
2023-04-23T09:40:25.819Z,4.10
2023-04-23T09:42:56.825Z,3.70
2023-04-23T09:45:27.876Z,3.30
2023-04-23T09:47:58.181Z,3.33
2023-04-23T09:50:39.743Z,4.03
2023-04-23T09:53:09.614Z,4.43
2023-04-23T09:55:40.118Z,3.78
2023-04-23T09:58:16.085Z,4.13
2023-04-23T10:00:43.997Z,3.78
2023-04-23T10:03:12.438Z,3.90
2023-04-23T10:08:16.420Z,3.80
2023-04-23T10:11:00.088Z,3.85
2023-04-23T10:13:31.043Z,3.47
2023-04-23T10:16:14.095Z,3.08
2023-04-23T10:18:51.256Z,3.72
2023-04-23T10:21:20.314Z,3.45
2023-04-23T10:23:50.681Z,3.00
2023-04-23T10:26:24.209Z,3.10
2023-04-23T10:28:55.595Z,2.90
2023-04-23T10:31:23.999Z,3.40
2023-04-23T10:33:58.685Z,3.15
2023-04-23T10:36:28.290Z,2.95
2023-04-23T10:39:00.289Z,3.47
2023-04-23T10:41:37.229Z,3.35
2023-04-23T10:44:15.873Z,3.08
2023-04-23T10:46:58.135Z,3.13
2023-04-23T10:49:26.295Z,3.35
2023-04-23T10:52:19.342Z,3.35
2023-04-23T10:54:57.483Z,2.85
2023-04-23T10:57:25.213Z,3.05
2023-04-23T10:59:55.487Z,3.40
2023-04-23T11:02:26.067Z,3.38
2023-04-23T11:04:59.025Z,3.13
2023-04-23T11:07:32.504Z,3.35
2023-04-23T11:10:11.410Z,3.15
2023-04-23T11:12:40.508Z,3.50
2023-04-23T11:15:14.377Z,3.08
2023-04-23T11:17:45.090Z,3.00
2023-04-23T11:20:23.973Z,3.20
2023-04-23T11:22:53.461Z,3.13
2023-04-23T11:25:27.171Z,3.33
2023-04-23T11:28:01.550Z,3.40
2023-04-23T11:30:32.394Z,3.05
2023-04-23T11:33:01.700Z,2.90
2023-04-23T11:35:30.771Z,3.05
2023-04-23T11:37:58.391Z,2.75
2023-04-23T11:40:26.008Z,3.28
2023-04-23T11:42:58.288Z,3.35
2023-04-23T11:45:30.317Z,3.40
2023-04-23T11:48:01.089Z,3.22
2023-04-23T11:50:33.803Z,2.88
2023-04-23T11:53:11.466Z,2.83
2023-04-23T11:55:44.188Z,3.10
2023-04-23T11:58:11.811Z,2.70
2023-04-23T12:00:40.836Z,3.00
2023-04-23T12:03:08.638Z,2.85
2023-04-23T12:05:41.198Z,3.10
2023-04-23T12:08:18.730Z,2.95
2023-04-23T12:10:57.508Z,2.78
2023-04-23T12:13:33.976Z,3.10
2023-04-23T12:16:04.988Z,3.03
2023-04-23T12:18:42.432Z,2.47
2023-04-23T12:21:12.994Z,2.38
2023-04-23T12:23:45.456Z,2.60
2023-04-23T12:26:16.232Z,3.03
2023-04-23T12:28:55.694Z,2.85
2023-04-23T12:31:28.579Z,2.70
2023-04-23T12:34:06.195Z,2.60
2023-04-23T12:36:38.771Z,2.95
2023-04-23T12:39:31.549Z,2.47
2023-04-23T12:42:03.090Z,2.33
2023-04-23T12:44:32.166Z,1.95
2023-04-23T12:47:05.596Z,2.28
2023-04-23T12:49:34.864Z,2.20
2023-04-23T12:52:04.436Z,2.10
2023-04-23T12:54:39.071Z,2.07
2023-04-23T12:57:13.152Z,1.90
2023-04-23T12:59:41.084Z,1.93
2023-04-23T13:02:10.562Z,1.60
2023-04-23T13:04:38.356Z,1.70
2023-04-23T13:07:06.163Z,1.83
2023-04-23T13:09:36.166Z,2.00
2023-04-23T13:12:04.501Z,1.60
2023-04-23T13:14:32.602Z,1.80
2023-04-23T13:17:00.239Z,1.80
2023-04-23T13:19:27.879Z,1.90
2023-04-23T13:21:55.621Z,1.87
2023-04-23T13:24:23.205Z,1.80
2023-04-23T13:26:50.992Z,1.70
2023-04-23T13:29:20.837Z,1.60
2023-04-23T13:31:49.308Z,1.33
2023-04-23T13:34:17.918Z,1.50
2023-04-23T13:36:45.526Z,1.57
2023-04-23T13:39:14.388Z,1.70
2023-04-23T13:41:42.536Z,1.73
2023-04-23T13:44:10.527Z,2.33
2023-04-23T13:46:40.235Z,1.90
2023-04-23T13:49:07.914Z,2.00
2023-04-23T13:51:36.254Z,1.40
2023-04-23T13:54:04.615Z,1.60
2023-04-23T13:56:32.343Z,1.70
2023-04-23T14:01:32.952Z,2.50
2023-04-23T14:04:00.628Z,2.00
2023-04-23T14:06:28.228Z,2.17
2023-04-23T14:08:55.799Z,1.90
2023-04-23T14:11:23.432Z,1.90
2023-04-23T14:13:51.108Z,2.30
2023-04-23T14:16:18.640Z,2.07
2023-04-23T14:18:46.188Z,2.13
2023-04-23T14:21:16.279Z,1.83
2023-04-23T14:24:01.432Z,1.90
2023-04-23T14:26:47.888Z,1.93
2023-04-23T14:29:56.220Z,2.20
2023-04-23T14:32:24.175Z,65.83
2023-04-23T14:34:51.915Z,7.90
2023-04-23T14:37:19.623Z,2.57
2023-04-23T14:39:47.156Z,2.33
2023-04-23T14:42:14.975Z,2.40
2023-04-23T14:44:42.531Z,6.53
2023-04-23T14:47:12.056Z,1.83
2023-04-23T14:49:41.933Z,2.10
2023-04-23T14:52:09.842Z,2.30
2023-04-23T14:54:37.490Z,2.33
2023-04-23T14:57:05.265Z,2.17
2023-04-23T14:59:32.872Z,2.47
2023-04-23T15:02:01.440Z,2.20
2023-04-23T15:04:29.136Z,2.80
2023-04-23T15:06:56.762Z,2.67
2023-04-23T15:09:24.319Z,8.13
2023-04-23T15:11:51.909Z,2.40
2023-04-23T15:14:25.630Z,2.60
2023-04-23T15:16:53.261Z,2.50
2023-04-23T15:19:20.903Z,2.10
2023-04-23T15:21:48.925Z,2.20
2023-04-23T15:24:17.386Z,2.50
2023-04-23T15:26:46.198Z,2.40
2023-04-23T15:29:14.121Z,2.40
2023-04-23T15:31:42.329Z,2.40
2023-04-23T15:34:11.749Z,2.60
2023-04-23T15:36:39.614Z,2.60
2023-04-23T15:39:08.767Z,2.40
2023-04-23T15:41:40.355Z,2.77
2023-04-23T15:44:12.471Z,2.20
2023-04-23T15:46:40.729Z,2.30
2023-04-23T15:49:08.735Z,2.20
2023-04-23T15:51:37.589Z,2.10
2023-04-23T15:54:08.884Z,2.50
2023-04-23T15:56:37.316Z,2.30
2023-04-23T15:59:05.577Z,2.30
2023-04-23T16:01:33.241Z,2.27
2023-04-23T16:04:10.195Z,1.90
2023-04-23T16:06:39.140Z,2.10
2023-04-23T16:09:08.680Z,4.17
2023-04-23T16:11:39.386Z,46.27
2023-04-23T16:14:09.567Z,38.23
2023-04-23T16:16:38.882Z,10.37
2023-04-23T16:19:06.801Z,10.80
2023-04-23T16:21:34.423Z,6.63
2023-04-23T16:24:02.067Z,3.20
2023-04-23T16:26:30.136Z,4.33
2023-04-23T16:29:11.421Z,35.67
2023-04-23T16:31:45.949Z,3.60
2023-04-23T16:34:13.798Z,14.77
2023-04-23T16:37:01.846Z,4.50
2023-04-23T16:39:33.991Z,3.50
2023-04-23T16:42:10.380Z,3.40
2023-04-23T16:44:43.485Z,4.40
2023-04-23T16:47:11.468Z,3.80
2023-04-23T16:49:39.166Z,4.20
2023-04-23T16:52:06.739Z,3.50
2023-04-23T16:54:36.305Z,3.50
2023-04-23T16:57:07.712Z,3.73
2023-04-23T16:59:35.330Z,3.30
2023-04-23T17:02:02.884Z,3.70
2023-04-23T17:04:30.728Z,3.77
2023-04-23T17:06:58.444Z,3.57
2023-04-23T17:09:25.974Z,3.40
2023-04-23T17:11:53.489Z,3.27
2023-04-23T17:14:22.493Z,3.53
2023-04-23T17:16:50.969Z,3.43
2023-04-23T17:19:18.654Z,3.30
2023-04-23T17:21:46.394Z,3.23
2023-04-23T17:24:14.094Z,3.40
2023-04-23T17:26:41.817Z,3.33
2023-04-23T17:29:09.469Z,3.00
2023-04-23T17:31:38.379Z,3.17
2023-04-23T17:34:06.005Z,3.00
2023-04-23T17:36:33.756Z,2.93
2023-04-23T17:39:01.410Z,3.07
2023-04-23T17:41:28.925Z,4.30
2023-04-23T17:43:56.510Z,4.33
2023-04-23T17:46:24.125Z,3.87
2023-04-23T17:48:51.754Z,3.60
2023-04-23T17:51:19.946Z,5.80
2023-04-23T17:53:51.147Z,6.70
2023-04-23T17:56:18.730Z,3.80
2023-04-23T17:58:46.321Z,3.43
2023-04-23T18:01:15.646Z,3.60
2023-04-23T18:03:44.061Z,3.50
2023-04-23T18:06:12.223Z,3.70
2023-04-23T18:08:42.527Z,3.47
2023-04-23T18:11:10.599Z,3.47
2023-04-23T18:13:38.404Z,3.43
2023-04-23T18:16:06.207Z,3.63
2023-04-23T18:18:33.862Z,8.03
2023-04-23T18:21:02.225Z,7.33
2023-04-23T18:23:31.511Z,6.80
2023-04-23T18:26:02.094Z,6.70
2023-04-23T18:28:29.719Z,7.07
2023-04-23T18:31:03.319Z,7.47
2023-04-23T18:33:37.858Z,7.77
2023-04-23T18:36:25.782Z,8.50
2023-04-23T18:38:54.271Z,11.40
2023-04-23T18:41:21.900Z,7.40
2023-04-23T18:43:49.627Z,4.87
2023-04-23T18:46:17.446Z,6.87
2023-04-23T18:49:19.851Z,6.37
2023-04-23T18:51:52.265Z,6.10
2023-04-23T18:54:19.834Z,4.07
2023-04-23T18:56:48.015Z,4.07
2023-04-23T18:59:15.635Z,6.60
2023-04-23T19:01:44.841Z,5.10
2023-04-23T19:04:12.789Z,4.60
2023-04-23T19:06:41.424Z,6.43
2023-04-23T19:09:09.248Z,4.87
2023-04-23T19:11:38.323Z,4.50
2023-04-23T19:14:05.936Z,4.63
2023-04-23T19:16:33.746Z,5.00
2023-04-23T19:19:01.487Z,5.10
2023-04-23T19:21:29.190Z,8.27
2023-04-23T19:23:56.983Z,9.70
2023-04-23T19:26:24.535Z,16.93
2023-04-23T19:28:52.070Z,14.27
2023-04-23T19:31:19.674Z,12.53
2023-04-23T19:33:47.801Z,11.40
2023-04-23T19:36:15.512Z,11.87
2023-04-23T19:38:43.155Z,13.70
2023-04-23T19:41:10.861Z,14.80
2023-04-23T19:43:38.878Z,16.30
2023-04-23T19:46:06.510Z,17.50
2023-04-23T19:48:34.165Z,19.40
2023-04-23T19:51:01.730Z,20.53
2023-04-23T19:53:29.627Z,16.83
2023-04-23T19:55:57.184Z,18.13
2023-04-23T19:58:24.716Z,16.13
2023-04-23T20:00:52.821Z,15.73
2023-04-23T20:03:21.320Z,12.93
2023-04-23T20:05:49.974Z,16.03
2023-04-23T20:08:26.250Z,18.23
2023-04-23T20:10:54.254Z,11.03
2023-04-23T20:13:22.163Z,11.17
2023-04-23T20:15:50.285Z,11.87
2023-04-23T20:18:18.807Z,11.03
2023-04-23T20:20:46.357Z,11.33
2023-04-23T20:23:13.943Z,12.53
2023-04-23T20:25:41.558Z,14.40
2023-04-23T20:28:12.225Z,11.63
2023-04-23T20:30:39.848Z,10.47
2023-04-23T20:33:07.787Z,10.63
2023-04-23T20:35:35.617Z,13.13
2023-04-23T20:38:03.743Z,13.17
2023-04-23T20:40:34.742Z,12.13
2023-04-23T20:43:02.433Z,10.23
2023-04-23T20:45:29.995Z,10.20
2023-04-23T20:48:02.679Z,10.40
2023-04-23T20:50:31.208Z,9.83
2023-04-23T20:52:59.041Z,13.07
2023-04-23T20:55:28.312Z,15.03
2023-04-23T20:57:55.979Z,17.43
2023-04-23T21:00:24.423Z,15.73
2023-04-23T21:02:52.039Z,13.63
2023-04-23T21:05:20.949Z,12.13
2023-04-23T21:07:50.777Z,11.77
2023-04-23T21:10:18.541Z,12.07
2023-04-23T21:12:46.527Z,11.37
2023-04-23T21:15:17.018Z,10.50
2023-04-23T21:17:44.608Z,9.27
2023-04-23T21:20:12.377Z,14.13
2023-04-23T21:22:40.231Z,24.07
2023-04-23T21:25:08.133Z,18.47
2023-04-23T21:27:35.859Z,13.13
2023-04-23T21:30:09.598Z,14.83
2023-04-23T21:32:37.335Z,16.03
2023-04-23T21:35:06.032Z,17.50
2023-04-23T21:37:33.603Z,19.37
2023-04-23T21:40:01.169Z,21.03
2023-04-23T21:42:30.282Z,19.83
2023-04-23T21:44:57.995Z,17.27
2023-04-23T21:47:25.761Z,17.43
2023-04-23T21:49:53.934Z,16.70
2023-04-23T21:52:21.461Z,16.67
2023-04-23T21:54:49.003Z,15.20
2023-04-23T21:57:16.596Z,14.37
2023-04-23T21:59:44.520Z,15.00
2023-04-23T22:02:12.361Z,16.70
2023-04-23T22:04:40.505Z,17.13
2023-04-23T22:07:12.616Z,13.47
2023-04-23T22:09:41.680Z,12.53
2023-04-23T22:12:09.690Z,12.43
2023-04-23T22:14:37.447Z,12.80
2023-04-23T22:17:07.765Z,13.07
2023-04-23T22:19:35.474Z,16.20
2023-04-23T22:22:03.167Z,16.67
2023-04-23T22:24:30.708Z,13.97
2023-04-23T22:26:59.243Z,13.27
2023-04-23T22:29:26.988Z,12.40
2023-04-23T22:31:54.603Z,12.13
2023-04-23T22:34:22.135Z,12.80
2023-04-23T22:36:49.640Z,12.20
2023-04-23T22:39:17.183Z,11.93
2023-04-23T22:41:44.713Z,11.20
2023-04-23T22:44:12.235Z,11.17
2023-04-23T22:46:40.658Z,9.37
2023-04-23T22:49:11.293Z,10.27
2023-04-23T22:51:38.988Z,9.87
2023-04-23T22:54:06.707Z,8.87
2023-04-23T22:56:34.524Z,9.47
2023-04-23T22:59:05.168Z,9.77
2023-04-23T23:01:32.990Z,9.70
2023-04-23T23:04:01.009Z,9.23
2023-04-23T23:06:28.602Z,8.80
2023-04-23T23:08:56.645Z,10.10
2023-04-23T23:11:30.276Z,9.80
2023-04-23T23:13:57.808Z,9.47
2023-04-23T23:16:25.758Z,9.67
2023-04-23T23:18:53.685Z,9.50
2023-04-23T23:21:21.240Z,9.87
2023-04-23T23:23:49.769Z,9.70
2023-04-23T23:26:17.733Z,9.47
2023-04-23T23:28:45.461Z,8.57
2023-04-23T23:31:13.113Z,9.23
2023-04-23T23:33:41.077Z,9.30
2023-04-23T23:36:08.939Z,8.80
2023-04-23T23:38:36.538Z,8.50
2023-04-23T23:41:04.183Z,8.90
2023-04-23T23:43:31.996Z,8.97
2023-04-23T23:45:59.588Z,9.43
2023-04-23T23:48:27.443Z,9.03
2023-04-23T23:50:54.999Z,9.30
2023-04-23T23:53:22.513Z,8.80
2023-04-23T23:55:50.035Z,8.57
2023-04-23T23:58:17.792Z,8.57
